AREA preflight bulletin
Updated "live" 15 Dec 2019, 09:46

back to the map




METAR og TAF


ILULISSAT
  AKTUEL BGJN 150920Z AUTO 11015KT 9999NDV OVC055/// M11/M17 Q1017=
  TAF 9 timer BGJN 141711Z 1418/1423 11017KT 9999 DRSN BKN050 TEMPO 1418/1423 BKN035=

AASIAAT
  AKTUEL BGAA 150920Z AUTO 13010KT 100V160 9999NDV OVC063/// M07/M12 Q1017=
  TAF 9 timer BGAA 142003Z 1420/1421 CNL=

UUMMANNAQ/QAARSUT
  AKTUEL BGUQ 150850Z AUTO VRB01KT 9999NDV NCD M11/M19 Q1016=
  TAF 9 timer BGUQ 141713Z 1417/1420 CNL=

NUUK
  AKTUEL BGGH 150920Z AUTO 05013KT 9999NDV BKN038/// M08/M13 Q1015=
  TAF 9 timer BGGH 141711Z 1418/1423 35012KT 9999 SCT020 BKN060 TEMPO 1418/1423 4000 -SHSN BKN010 SCT025TCU=

KANGERLUSSUAQ
  AKTUEL BGSF 150920Z AUTO 06007KT 9999NDV OVC050/// M12/M15 Q1019=
  TAF 24 timer BGSF 141649Z 1418/1503 05008KT 9999 BKN045 TEMPO 1418/1503 BKN035=

QEQERTARSUAQ
  AKTUEL BGGN 150850Z AUTO 20012KT //// ///////// M05/M10 Q1016=

QASIGIANNGUIT
  AKTUEL BGCH 150920Z AUTO 18010KT //// ///////// M08/M16 Q1017=


SIGMETS:

SONDRESTROM FIR
  SIGMET BGGL SIGMET 2 VALID 150530/150930 BGSF- BGGL NUUK FIR SEV TURB FCST AT 0530Z WI N7411 W01836 - N7202 W02126 - N7004 W02120 - N6802 W02813 - N6920 W03010 - N7512 W02033 - N7411 W01836 SFC/FL130 STNR NC=

SONDRESTROM FIR
  SIGMET BGGL SIGMET 3 VALID 150930/151330 BGSF- BGGL NUUK FIR SEV TURB FCST AT 0930Z WI N6745 W03120 - N7353 W02015 - N7001 W02111 - N6831 W02601 - N6745 W03120 SFC/FL130 STNR NC=

SNOWTAM:

ICAO
BGGH (NUUK)

valid from:
1912142140

Notam_id:
0236

SNOWTAM 0236 A) BGGH B) 12142140 C) 05 F) 47/47/47 G) 1/1/1 H) 5/5/5 N) 487/MEDIUM R) 487/POOR T) RWY CONTAMINATION 50 PERCENT 1MM DRY SNOW AND 50 PERCENT 1MM ICE MEASURED FRICTION COEFFICIENTS 54/56/51 SKH.


ICAO
BGSF (KANGERLUSSUAQ)

valid from:
1912142220

Notam_id:
0171

SNOWTAM 0171 A) BGSF B) 12142220 C) 09 F) 487/487/487 G) 12/12/12 H) 5/5/5 N) A/3487/GOOD B C D/487/GOOD R) N/3487/GOOD E W/487/GOOD HELIAPRON/3487/POOR T) MEASURED FRICTION COEFFICIENTS 71/86/87 TAP, RWY CONTAMINATION 10 PERCENT OF 2MM DRY SNOW, 25 PERCENT 5MM COMPACTED OR ROLLED SNOW AND 10 PERCENT OF 5MM ICE



NOTAM/SNOWTAM for operationel use has to be confirmed with the
nearest AIS Briefing Office prior to a flight.

ICAO
BGUQ (UUMMANNAQ/QAARSUT)

FIR
BGGL

Notam_id:
BGB0779/19

valid from:
1911301222

E) THR ID LIGHTS RWY 33 U/S.

valid to:
1912201900EST


Replacing:
BGB0582/19

ICAO
BGUQ (UUMMANNAQ/QAARSUT)

FIR
BGGL

Notam_id:
BGB0787/19

valid from:
1912021450

E) FOLLOWING TEXT CHANGE ADDED TO FOLLOWING SECTIONS: SECTION 4, POINT 1. CARGO-HANDLING FACILITIES TEXT CHANGED TO: FORKLIFT TRUCK. SECTION 6, POINT 1. AD CATEGORY FOR FIRE FIGHTING TEXT CHANGED TO: CAT 5 PPR 3 HR BEFORE LANDING OR DEPARTURE FOR ALL TRAFFIC ABOVE 10 TON AND MORE THAN 19 PASSENGERS EXCEPT FOR SCHEDULED TRAFFIC. POINT 2. RESCUE EQUIPMENT TEXT CHANGED TO: BOATS AND DINGHIES FOR 50 PERSONS.

valid to:
PERM




ICAO
BGGL (SONDRESTROM FIR)

FIR
BGGL

Notam_id:
BGA0483/19

valid from:
1909271038

E) NUUK INFORMATION FREQ 5526 KHZ PSN 6334N03707W KULUSUK U/S.

valid to:
2004011800




ICAO
BGGL (SONDRESTROM FIR)

FIR
BGGL

Notam_id:
BGA0594/19

valid from:
1912010551

E) CHECKLIST YEAR=2018 0199 YEAR=2019 0483 0519 0527 0556 0566 0569 0570 0584 LATEST PUBLICATIONS AIP AIRAC AMDT IFR 008/2019 EFFECTIVE DATE 05 DEC 19 AIP AMDT IFR 003/2018 EFFECTIVE DATE 15 MAR 18 AIP SUP IFR 002/2019 EFFECTIVE DATE 08 NOV 19 AIC IFR A001/2019 EFFECTIVE DATE 17 JAN 19 AIC CHECKLIST AIP IFR A001/2016 A002/2016 A001/2017 A002/2017 A002/2018 A003/2018 A004/2018 A001/2019 AIP VFR NIL AIP MIL NIL SUP CHECKLIST AIP IFR 002/2019 AIP VFR NIL AIP MIL NIL

valid to:
2001010551EST


Replacing:
BGA0530/19

ICAO
BGGL (SONDRESTROM FIR)

FIR
BGGL

Notam_id:
BGB0781/19

valid from:
1912010552

E) CHECKLIST YEAR=2019 0145 0606 0655 0663 0677 0696 0734 0764 0765 0767 0775 0776 0779 0780 LATEST PUBLICATIONS AIP AIRAC AMDT IFR 008/2019 EFFECTIVE DATE 05 DEC 19 AIP AMDT IFR 003/2018 EFFECTIVE DATE 15 MAR 18 AIP SUP IFR 002/2019 EFFECTIVE DATE 08 NOV 19 AIC IFR A001/2019 EFFECTIVE DATE 17 JAN 19 AIC CHECKLIST AIP IFR A001/2016 A002/2016 A001/2017 A002/2017 A002/2018 A003/2018 A004/2018 A001/2019 AIP VFR NIL AIP MIL NIL SUP CHECKLIST AIP IFR 002/2019 AIP VFR NIL AIP MIL NIL

valid to:
2001010552EST


Replacing:
BGB0698/19

ICAO
BGGL (SONDRESTROM FIR)

FIR
BGGL

Notam_id:
BGC0127/19

valid from:
1912010552

E) CHECKLIST YEAR=2019 0067 0068 0070 0073 0096 0105 0106 0121 0125 LATEST PUBLICATIONS AIP AIRAC AMDT IFR 008/2019 EFFECTIVE DATE 05 DEC 19 AIP AMDT IFR 003/2018 EFFECTIVE DATE 15 MAR 18 AIP SUP IFR 002/2019 EFFECTIVE DATE 08 NOV 19 AIC IFR A001/2019 EFFECTIVE DATE 17 JAN 19 AIC CHECKLIST AIP IFR A001/2016 A002/2016 A001/2017 A002/2017 A002/2018 A003/2018 A004/2018 A001/2019 AIP VFR NIL AIP MIL NIL SUP CHECKLIST AIP IFR 002/2019 AIP VFR NIL AIP MIL NIL

valid to:
2001010552EST


Replacing:
BGC0117/19

ICAO
BGGL (SONDRESTROM FIR)

FIR
BGGL

Notam_id:
BGA0600/19

valid from:
1912170903

D) DAILY 0903-1020


E) DANGER AREA ACTIVATED TEMPORARY DANGER AREA ESTABLISHED IN BGGL FIR PART OF THE BELOW MENTIONED AREA. SOYUZ ROCKET LAUNCH VS23 FROM FRENCH GUYANA SPACE CENTER. DEBRIS IMPACTED AREA BOUNDED BY: 7035N06346W 7040N06203W 6911N06134W 6907N06310W F) SFC G) FL195

valid to:
1912241020




ICAO
BGGL (SONDRESTROM FIR)

FIR
BGGL

Notam_id:
BGA0519/19

valid from:
1912050000

E) TRIGGER NOTAM - PERM AIP AIRAC AMDT 08/19 WEF 05 DEC 2019. LIST OF AIRAC EFFECTIVE DATES UPDATED.

valid to:
1912182359




ICAO
BGGL (SONDRESTROM FIR)

FIR
BGGL

Notam_id:
BGA0199/18

valid from:
1805310935

E) GREENLAND AND ADJACENT WATERS ARE CONSIDERED HOSTILE AREAS BY THE CIVIL AVIATION AUTHORITY (TBST). THREE MAJOR REASONS CONTRIBUTE TO DEFINING THE AREA AS HOSTILE: A SAFE FORCED LANDING CANNOT BE ACCOMPLISHED BECAUSE THE SURFACE IS INADEQUATE. THE HELICOPTER OCCUPANTS CANNOT BE ADEQUATELY PROTECTED FROM THE ELEMENTS. SEARCH AND RESCUE RESPONSE/CAPABILITY ARE NOT PROVIDED CONSISTENT WITH ANTICIPATED EXPOSURE.

valid to:
PERM




ICAO
BGGL (SONDRESTROM FIR)

FIR
BGGL

Notam_id:
BGA0601/19

valid from:
2001300000

E) AIP GREENLAND AIRAC AMDT EFFECTIVE DATE 30 JAN 2020: NIL.

valid to:
2002122359




ICAO
BGGL (SONDRESTROM FIR)

FIR
BGGL

Notam_id:
BGA0584/19

valid from:
2001020000

E) AIP GREENLAND AIRAC AMDT EFFECTIVE DATE 02 JAN 2020: NIL.

valid to:
2001152359




ICAO
BGGH (NUUK)

FIR
BGGL

Notam_id:
BGB0814/19

valid from:
1912141502

E) BGGH AFIS FREQ 119.100 MHZ RADIOCOVERAGE LIMITED TO LINE OF SIGHT WITH AERODROME. RECIEVER/TRANSMITTER AT LILLE MALENE OUT OF SERVICE

valid to:
1912161911EST




ICAO
BGGH (NUUK)

FIR
BGGL

Notam_id:
BGB0799/19

valid from:
1912091203

E) LIGHTING ON RWY DESIGNATION SIGNS U/S.

valid to:
1912231200EST


Replacing:
BGB0782/19


Copyright Naviair   2003-2016